sensor_id;sensor_type;location;lat;lon;timestamp;temperature;humidity
24408;DHT22;12542;50.924;4.516;2022-09-28T00:03:33;11.90;99.90
24408;DHT22;12542;50.924;4.516;2022-09-28T00:06:05;11.70;99.90
24408;DHT22;12542;50.924;4.516;2022-09-28T00:08:33;11.70;99.90
24408;DHT22;12542;50.924;4.516;2022-09-28T00:10:59;11.50;99.90
24408;DHT22;12542;50.924;4.516;2022-09-28T00:13:25;11.50;99.90
24408;DHT22;12542;50.924;4.516;2022-09-28T00:16:19;11.40;99.90
24408;DHT22;12542;50.924;4.516;2022-09-28T00:18:45;11.50;99.90
24408;DHT22;12542;50.924;4.516;2022-09-28T00:21:14;11.40;99.90
24408;DHT22;12542;50.924;4.516;2022-09-28T00:23:41;11.40;99.90
24408;DHT22;12542;50.924;4.516;2022-09-28T00:26:27;11.30;99.90
24408;DHT22;12542;50.924;4.516;2022-09-28T00:28:55;11.30;99.90
24408;DHT22;12542;50.924;4.516;2022-09-28T00:31:21;11.20;99.90
24408;DHT22;12542;50.924;4.516;2022-09-28T00:33:52;11.20;99.90
24408;DHT22;12542;50.924;4.516;2022-09-28T00:36:21;11.20;99.90
24408;DHT22;12542;50.924;4.516;2022-09-28T00:38:47;11.20;99.90
24408;DHT22;12542;50.924;4.516;2022-09-28T00:41:14;11.20;99.90
24408;DHT22;12542;50.924;4.516;2022-09-28T00:43:41;11.20;99.90
24408;DHT22;12542;50.924;4.516;2022-09-28T00:46:16;11.10;99.90
24408;DHT22;12542;50.924;4.516;2022-09-28T00:48:53;11.20;99.90
24408;DHT22;12542;50.924;4.516;2022-09-28T00:51:20;11.30;99.90
24408;DHT22;12542;50.924;4.516;2022-09-28T00:53:48;11.40;99.90
24408;DHT22;12542;50.924;4.516;2022-09-28T00:56:17;11.40;99.90
24408;DHT22;12542;50.924;4.516;2022-09-28T00:58:50;11.40;99.90
24408;DHT22;12542;50.924;4.516;2022-09-28T01:01:17;11.40;99.90
24408;DHT22;12542;50.924;4.516;2022-09-28T01:03:44;11.30;99.90
24408;DHT22;12542;50.924;4.516;2022-09-28T01:06:19;11.30;99.90
24408;DHT22;12542;50.924;4.516;2022-09-28T01:08:47;11.40;99.90
24408;DHT22;12542;50.924;4.516;2022-09-28T01:11:16;11.40;99.90
24408;DHT22;12542;50.924;4.516;2022-09-28T01:13:42;11.40;99.90
24408;DHT22;12542;50.924;4.516;2022-09-28T01:21:21;11.40;99.90
24408;DHT22;12542;50.924;4.516;2022-09-28T01:32:14;11.30;99.90
24408;DHT22;12542;50.924;4.516;2022-09-28T01:34:50;11.30;99.90
24408;DHT22;12542;50.924;4.516;2022-09-28T01:37:20;11.20;99.90
24408;DHT22;12542;50.924;4.516;2022-09-28T01:39:48;11.20;99.90
24408;DHT22;12542;50.924;4.516;2022-09-28T01:42:22;11.20;99.90
24408;DHT22;12542;50.924;4.516;2022-09-28T01:44:50;11.20;99.90
24408;DHT22;12542;50.924;4.516;2022-09-28T01:47:20;11.20;99.90
24408;DHT22;12542;50.924;4.516;2022-09-28T01:49:54;11.20;99.90
24408;DHT22;12542;50.924;4.516;2022-09-28T01:52:30;11.20;99.90
24408;DHT22;12542;50.924;4.516;2022-09-28T01:55:11;11.20;99.90
24408;DHT22;12542;50.924;4.516;2022-09-28T01:57:44;11.10;99.90
24408;DHT22;12542;50.924;4.516;2022-09-28T02:00:13;10.90;99.90
24408;DHT22;12542;50.924;4.516;2022-09-28T02:05:39;10.90;99.90
24408;DHT22;12542;50.924;4.516;2022-09-28T02:10:44;10.80;99.90
24408;DHT22;12542;50.924;4.516;2022-09-28T02:13:21;10.80;99.90
24408;DHT22;12542;50.924;4.516;2022-09-28T02:18:29;10.80;99.90
24408;DHT22;12542;50.924;4.516;2022-09-28T02:21:01;10.80;99.90
24408;DHT22;12542;50.924;4.516;2022-09-28T02:23:29;10.70;99.90
24408;DHT22;12542;50.924;4.516;2022-09-28T02:26:05;10.70;99.90
24408;DHT22;12542;50.924;4.516;2022-09-28T02:28:32;10.70;99.90
24408;DHT22;12542;50.924;4.516;2022-09-28T02:30:58;10.70;99.90
24408;DHT22;12542;50.924;4.516;2022-09-28T02:33:32;10.70;99.90
24408;DHT22;12542;50.924;4.516;2022-09-28T02:36:00;10.70;99.90
24408;DHT22;12542;50.924;4.516;2022-09-28T02:38:29;10.70;99.90
24408;DHT22;12542;50.924;4.516;2022-09-28T02:44:25;10.60;99.90
24408;DHT22;12542;50.924;4.516;2022-09-28T02:49:44;10.70;99.90
24408;DHT22;12542;50.924;4.516;2022-09-28T02:52:36;10.60;99.90
24408;DHT22;12542;50.924;4.516;2022-09-28T02:58:41;10.60;99.90
24408;DHT22;12542;50.924;4.516;2022-09-28T03:01:32;10.60;99.90
24408;DHT22;12542;50.924;4.516;2022-09-28T03:04:09;10.60;99.90
24408;DHT22;12542;50.924;4.516;2022-09-28T03:06:45;10.70;99.90
24408;DHT22;12542;50.924;4.516;2022-09-28T03:11:44;10.60;99.90
24408;DHT22;12542;50.924;4.516;2022-09-28T03:14:12;10.60;99.90
24408;DHT22;12542;50.924;4.516;2022-09-28T03:16:42;10.70;99.90
24408;DHT22;12542;50.924;4.516;2022-09-28T03:19:10;10.70;99.90
24408;DHT22;12542;50.924;4.516;2022-09-28T03:21:36;10.70;99.90
24408;DHT22;12542;50.924;4.516;2022-09-28T03:24:02;10.70;99.90
24408;DHT22;12542;50.924;4.516;2022-09-28T03:26:29;10.70;99.90
24408;DHT22;12542;50.924;4.516;2022-09-28T03:28:55;10.70;99.90
24408;DHT22;12542;50.924;4.516;2022-09-28T03:31:21;10.70;99.90
24408;DHT22;12542;50.924;4.516;2022-09-28T03:33:47;10.70;99.90
24408;DHT22;12542;50.924;4.516;2022-09-28T03:36:13;10.70;99.90
24408;DHT22;12542;50.924;4.516;2022-09-28T03:38:39;10.70;99.90
24408;DHT22;12542;50.924;4.516;2022-09-28T03:41:08;10.80;99.90
24408;DHT22;12542;50.924;4.516;2022-09-28T03:43:34;10.70;99.90
24408;DHT22;12542;50.924;4.516;2022-09-28T03:46:01;10.70;99.90
24408;DHT22;12542;50.924;4.516;2022-09-28T03:48:28;10.70;99.90
24408;DHT22;12542;50.924;4.516;2022-09-28T03:50:56;10.60;99.90
24408;DHT22;12542;50.924;4.516;2022-09-28T03:53:23;10.60;99.90
24408;DHT22;12542;50.924;4.516;2022-09-28T03:55:49;10.60;99.90
24408;DHT22;12542;50.924;4.516;2022-09-28T03:58:19;10.50;99.90
24408;DHT22;12542;50.924;4.516;2022-09-28T04:00:46;10.50;99.90
24408;DHT22;12542;50.924;4.516;2022-09-28T04:03:12;10.40;99.90
24408;DHT22;12542;50.924;4.516;2022-09-28T04:05:38;10.30;99.90
24408;DHT22;12542;50.924;4.516;2022-09-28T04:08:04;10.30;99.90
24408;DHT22;12542;50.924;4.516;2022-09-28T04:10:32;10.10;99.90
24408;DHT22;12542;50.924;4.516;2022-09-28T04:12:57;10.20;99.90
24408;DHT22;12542;50.924;4.516;2022-09-28T04:15:24;10.10;99.90
24408;DHT22;12542;50.924;4.516;2022-09-28T04:17:50;10.00;99.90
24408;DHT22;12542;50.924;4.516;2022-09-28T04:20:17;10.00;99.90
24408;DHT22;12542;50.924;4.516;2022-09-28T04:22:43;9.90;99.90
24408;DHT22;12542;50.924;4.516;2022-09-28T04:25:09;9.90;99.90
24408;DHT22;12542;50.924;4.516;2022-09-28T04:27:35;10.00;99.90
24408;DHT22;12542;50.924;4.516;2022-09-28T04:30:20;10.00;99.90
24408;DHT22;12542;50.924;4.516;2022-09-28T04:32:46;10.00;99.90
24408;DHT22;12542;50.924;4.516;2022-09-28T04:35:13;10.00;99.90
24408;DHT22;12542;50.924;4.516;2022-09-28T04:37:39;9.90;99.90
24408;DHT22;12542;50.924;4.516;2022-09-28T04:40:06;9.90;99.90
24408;DHT22;12542;50.924;4.516;2022-09-28T04:42:32;9.90;99.90
24408;DHT22;12542;50.924;4.516;2022-09-28T04:44:57;10.00;99.90
24408;DHT22;12542;50.924;4.516;2022-09-28T04:47:25;10.00;99.90
24408;DHT22;12542;50.924;4.516;2022-09-28T04:49:51;9.90;99.90
24408;DHT22;12542;50.924;4.516;2022-09-28T04:52:18;10.00;99.90
24408;DHT22;12542;50.924;4.516;2022-09-28T04:54:46;9.80;99.90
24408;DHT22;12542;50.924;4.516;2022-09-28T04:57:12;9.80;99.90
24408;DHT22;12542;50.924;4.516;2022-09-28T04:59:38;9.80;99.90
24408;DHT22;12542;50.924;4.516;2022-09-28T05:02:04;9.80;99.90
24408;DHT22;12542;50.924;4.516;2022-09-28T05:04:30;9.70;99.90
24408;DHT22;12542;50.924;4.516;2022-09-28T05:06:56;9.60;99.90
24408;DHT22;12542;50.924;4.516;2022-09-28T05:09:22;9.70;99.90
24408;DHT22;12542;50.924;4.516;2022-09-28T05:11:49;9.60;99.90
24408;DHT22;12542;50.924;4.516;2022-09-28T05:14:15;9.60;99.90
24408;DHT22;12542;50.924;4.516;2022-09-28T05:16:41;9.50;99.90
24408;DHT22;12542;50.924;4.516;2022-09-28T05:19:07;9.50;99.90
24408;DHT22;12542;50.924;4.516;2022-09-28T05:21:32;9.50;99.90
24408;DHT22;12542;50.924;4.516;2022-09-28T05:23:59;9.60;99.90
24408;DHT22;12542;50.924;4.516;2022-09-28T05:26:25;9.50;99.90
24408;DHT22;12542;50.924;4.516;2022-09-28T05:28:53;9.50;99.90
24408;DHT22;12542;50.924;4.516;2022-09-28T05:31:19;9.50;99.90
24408;DHT22;12542;50.924;4.516;2022-09-28T05:33:45;9.40;99.90
24408;DHT22;12542;50.924;4.516;2022-09-28T05:36:11;9.40;99.90
24408;DHT22;12542;50.924;4.516;2022-09-28T05:38:36;9.40;99.90
24408;DHT22;12542;50.924;4.516;2022-09-28T05:41:03;9.40;99.90
24408;DHT22;12542;50.924;4.516;2022-09-28T05:43:29;9.50;99.90
24408;DHT22;12542;50.924;4.516;2022-09-28T05:45:55;9.50;99.90
24408;DHT22;12542;50.924;4.516;2022-09-28T05:48:22;9.50;99.90
24408;DHT22;12542;50.924;4.516;2022-09-28T05:50:51;9.50;99.90
24408;DHT22;12542;50.924;4.516;2022-09-28T05:53:18;9.50;99.90
24408;DHT22;12542;50.924;4.516;2022-09-28T05:55:43;9.60;99.90
24408;DHT22;12542;50.924;4.516;2022-09-28T05:58:10;9.60;99.90
24408;DHT22;12542;50.924;4.516;2022-09-28T06:00:36;9.80;99.90
24408;DHT22;12542;50.924;4.516;2022-09-28T06:03:07;10.10;99.90
24408;DHT22;12542;50.924;4.516;2022-09-28T06:05:37;10.90;99.90
24408;DHT22;12542;50.924;4.516;2022-09-28T06:08:05;12.30;99.90
24408;DHT22;12542;50.924;4.516;2022-09-28T06:10:32;13.80;99.90
24408;DHT22;12542;50.924;4.516;2022-09-28T06:12:58;15.40;99.90
24408;DHT22;12542;50.924;4.516;2022-09-28T06:15:27;16.80;99.90
24408;DHT22;12542;50.924;4.516;2022-09-28T06:18:12;18.00;99.90
24408;DHT22;12542;50.924;4.516;2022-09-28T06:20:41;19.20;99.90
24408;DHT22;12542;50.924;4.516;2022-09-28T06:23:09;19.90;99.90
24408;DHT22;12542;50.924;4.516;2022-09-28T06:25:35;20.00;99.90
24408;DHT22;12542;50.924;4.516;2022-09-28T06:28:08;19.20;99.90
24408;DHT22;12542;50.924;4.516;2022-09-28T06:30:35;19.70;99.90
24408;DHT22;12542;50.924;4.516;2022-09-28T06:33:04;20.70;99.90
24408;DHT22;12542;50.924;4.516;2022-09-28T06:35:34;21.80;99.50
24408;DHT22;12542;50.924;4.516;2022-09-28T06:38:00;22.70;96.80
24408;DHT22;12542;50.924;4.516;2022-09-28T06:40:27;23.50;95.40
24408;DHT22;12542;50.924;4.516;2022-09-28T06:43:01;24.40;93.70
24408;DHT22;12542;50.924;4.516;2022-09-28T06:45:28;25.10;91.90
24408;DHT22;12542;50.924;4.516;2022-09-28T06:47:55;25.60;91.00
24408;DHT22;12542;50.924;4.516;2022-09-28T06:50:26;26.20;89.80
24408;DHT22;12542;50.924;4.516;2022-09-28T06:52:53;26.10;86.00
24408;DHT22;12542;50.924;4.516;2022-09-28T06:55:20;25.90;87.20
24408;DHT22;12542;50.924;4.516;2022-09-28T06:57:46;26.60;84.80
24408;DHT22;12542;50.924;4.516;2022-09-28T07:00:13;27.20;84.00
24408;DHT22;12542;50.924;4.516;2022-09-28T07:02:38;27.50;81.00
24408;DHT22;12542;50.924;4.516;2022-09-28T07:05:04;28.00;83.10
24408;DHT22;12542;50.924;4.516;2022-09-28T07:07:32;28.40;78.20
24408;DHT22;12542;50.924;4.516;2022-09-28T07:09:58;28.90;76.50
24408;DHT22;12542;50.924;4.516;2022-09-28T07:12:24;29.30;76.10
24408;DHT22;12542;50.924;4.516;2022-09-28T07:14:50;29.00;74.80
24408;DHT22;12542;50.924;4.516;2022-09-28T07:17:21;29.70;72.70
24408;DHT22;12542;50.924;4.516;2022-09-28T07:19:47;29.50;71.60
24408;DHT22;12542;50.924;4.516;2022-09-28T07:22:20;29.70;73.00
24408;DHT22;12542;50.924;4.516;2022-09-28T07:24:46;29.80;70.70
24408;DHT22;12542;50.924;4.516;2022-09-28T07:27:12;30.30;70.10
24408;DHT22;12542;50.924;4.516;2022-09-28T07:29:38;30.70;69.40
24408;DHT22;12542;50.924;4.516;2022-09-28T07:32:04;30.20;67.00
24408;DHT22;12542;50.924;4.516;2022-09-28T07:34:29;30.10;67.60
24408;DHT22;12542;50.924;4.516;2022-09-28T07:36:55;30.20;68.10
24408;DHT22;12542;50.924;4.516;2022-09-28T07:39:23;30.00;66.50
24408;DHT22;12542;50.924;4.516;2022-09-28T07:41:49;29.90;67.00
24408;DHT22;12542;50.924;4.516;2022-09-28T07:44:14;29.70;68.80
24408;DHT22;12542;50.924;4.516;2022-09-28T07:46:41;29.30;67.80
24408;DHT22;12542;50.924;4.516;2022-09-28T07:49:07;28.70;68.80
24408;DHT22;12542;50.924;4.516;2022-09-28T07:51:36;28.50;72.40
24408;DHT22;12542;50.924;4.516;2022-09-28T07:54:02;28.30;72.20
24408;DHT22;12542;50.924;4.516;2022-09-28T07:56:28;28.40;71.60
24408;DHT22;12542;50.924;4.516;2022-09-28T07:58:58;28.50;71.10
24408;DHT22;12542;50.924;4.516;2022-09-28T08:01:24;28.40;71.80
24408;DHT22;12542;50.924;4.516;2022-09-28T08:03:50;28.10;72.10
24408;DHT22;12542;50.924;4.516;2022-09-28T08:06:16;27.60;73.20
24408;DHT22;12542;50.924;4.516;2022-09-28T08:08:43;27.50;73.50
24408;DHT22;12542;50.924;4.516;2022-09-28T08:11:13;27.20;75.10
24408;DHT22;12542;50.924;4.516;2022-09-28T08:13:40;27.00;76.00
24408;DHT22;12542;50.924;4.516;2022-09-28T08:16:06;26.00;77.00
24408;DHT22;12542;50.924;4.516;2022-09-28T08:18:34;25.80;78.70
24408;DHT22;12542;50.924;4.516;2022-09-28T08:21:01;25.20;78.80
24408;DHT22;12542;50.924;4.516;2022-09-28T08:23:45;25.00;84.10
24408;DHT22;12542;50.924;4.516;2022-09-28T08:26:11;24.90;82.80
24408;DHT22;12542;50.924;4.516;2022-09-28T08:28:37;24.70;83.40
24408;DHT22;12542;50.924;4.516;2022-09-28T08:31:03;24.50;84.10
24408;DHT22;12542;50.924;4.516;2022-09-28T08:33:32;24.10;87.00
24408;DHT22;12542;50.924;4.516;2022-09-28T08:35:59;24.40;87.00
24408;DHT22;12542;50.924;4.516;2022-09-28T08:38:27;23.90;86.50
24408;DHT22;12542;50.924;4.516;2022-09-28T08:41:29;23.70;89.00
24408;DHT22;12542;50.924;4.516;2022-09-28T08:44:01;23.70;90.00
24408;DHT22;12542;50.924;4.516;2022-09-28T08:46:36;23.90;89.70
24408;DHT22;12542;50.924;4.516;2022-09-28T08:49:13;23.60;90.00
24408;DHT22;12542;50.924;4.516;2022-09-28T08:51:56;23.50;90.50
24408;DHT22;12542;50.924;4.516;2022-09-28T08:54:43;22.90;91.50
24408;DHT22;12542;50.924;4.516;2022-09-28T08:59:51;22.70;91.80
24408;DHT22;12542;50.924;4.516;2022-09-28T09:04:59;22.60;92.90
24408;DHT22;12542;50.924;4.516;2022-09-28T09:19:03;22.60;93.10
24408;DHT22;12542;50.924;4.516;2022-09-28T09:21:15;22.30;93.30
24408;DHT22;12542;50.924;4.516;2022-09-28T09:26:42;22.10;93.90
24408;DHT22;12542;50.924;4.516;2022-09-28T09:48:37;21.10;96.70
24408;DHT22;12542;50.924;4.516;2022-09-28T09:51:31;21.10;97.00
24408;DHT22;12542;50.924;4.516;2022-09-28T09:54:02;21.00;96.70
24408;DHT22;12542;50.924;4.516;2022-09-28T09:56:44;21.20;97.50
24408;DHT22;12542;50.924;4.516;2022-09-28T09:59:26;21.50;97.10
24408;DHT22;12542;50.924;4.516;2022-09-28T10:02:00;21.60;96.40
24408;DHT22;12542;50.924;4.516;2022-09-28T10:04:35;21.40;97.10
24408;DHT22;12542;50.924;4.516;2022-09-28T10:07:08;21.60;96.30
24408;DHT22;12542;50.924;4.516;2022-09-28T10:09:41;22.00;95.20
24408;DHT22;12542;50.924;4.516;2022-09-28T10:12:13;22.00;95.90
24408;DHT22;12542;50.924;4.516;2022-09-28T10:14:40;21.90;95.10
24408;DHT22;12542;50.924;4.516;2022-09-28T10:17:08;21.70;95.90
24408;DHT22;12542;50.924;4.516;2022-09-28T10:19:35;21.40;95.20
24408;DHT22;12542;50.924;4.516;2022-09-28T10:22:03;21.30;96.60
24408;DHT22;12542;50.924;4.516;2022-09-28T10:27:07;21.50;97.10
24408;DHT22;12542;50.924;4.516;2022-09-28T10:29:48;21.30;96.60
24408;DHT22;12542;50.924;4.516;2022-09-28T10:32:21;20.90;97.20
24408;DHT22;12542;50.924;4.516;2022-09-28T10:34:49;20.80;98.50
24408;DHT22;12542;50.924;4.516;2022-09-28T10:37:18;21.20;97.40
24408;DHT22;12542;50.924;4.516;2022-09-28T10:39:52;21.50;96.80
24408;DHT22;12542;50.924;4.516;2022-09-28T10:42:26;21.00;98.40
24408;DHT22;12542;50.924;4.516;2022-09-28T10:44:56;21.10;97.60
24408;DHT22;12542;50.924;4.516;2022-09-28T10:47:25;20.90;97.10
24408;DHT22;12542;50.924;4.516;2022-09-28T10:49:53;20.90;98.60
24408;DHT22;12542;50.924;4.516;2022-09-28T10:52:40;21.10;98.80
24408;DHT22;12542;50.924;4.516;2022-09-28T10:55:33;19.90;99.00
24408;DHT22;12542;50.924;4.516;2022-09-28T10:58:22;19.20;99.90
24408;DHT22;12542;50.924;4.516;2022-09-28T11:00:48;18.30;99.90
24408;DHT22;12542;50.924;4.516;2022-09-28T11:03:23;18.00;99.90
24408;DHT22;12542;50.924;4.516;2022-09-28T11:06:10;17.40;99.90
24408;DHT22;12542;50.924;4.516;2022-09-28T11:08:38;17.10;99.90
24408;DHT22;12542;50.924;4.516;2022-09-28T11:11:09;16.90;99.90
24408;DHT22;12542;50.924;4.516;2022-09-28T11:13:44;16.70;99.90
24408;DHT22;12542;50.924;4.516;2022-09-28T11:16:23;16.50;99.90
24408;DHT22;12542;50.924;4.516;2022-09-28T11:18:49;16.50;99.90
24408;DHT22;12542;50.924;4.516;2022-09-28T11:21:39;16.40;99.90
24408;DHT22;12542;50.924;4.516;2022-09-28T11:24:16;16.40;99.90
24408;DHT22;12542;50.924;4.516;2022-09-28T11:27:17;16.60;99.90
24408;DHT22;12542;50.924;4.516;2022-09-28T11:29:45;16.80;99.90
24408;DHT22;12542;50.924;4.516;2022-09-28T11:32:17;17.00;99.90
24408;DHT22;12542;50.924;4.516;2022-09-28T11:34:47;17.40;99.90
24408;DHT22;12542;50.924;4.516;2022-09-28T11:42:45;18.80;99.90
24408;DHT22;12542;50.924;4.516;2022-09-28T11:48:13;19.30;99.90
24408;DHT22;12542;50.924;4.516;2022-09-28T11:50:47;19.40;99.90
24408;DHT22;12542;50.924;4.516;2022-09-28T11:53:25;19.20;99.90
24408;DHT22;12542;50.924;4.516;2022-09-28T11:56:10;19.20;99.90
24408;DHT22;12542;50.924;4.516;2022-09-28T11:58:45;19.30;99.90
24408;DHT22;12542;50.924;4.516;2022-09-28T12:04:03;19.80;99.90
24408;DHT22;12542;50.924;4.516;2022-09-28T12:07:18;19.90;99.90
24408;DHT22;12542;50.924;4.516;2022-09-28T12:09:32;19.80;99.90
24408;DHT22;12542;50.924;4.516;2022-09-28T12:12:04;19.60;99.90
24408;DHT22;12542;50.924;4.516;2022-09-28T12:14:38;19.50;99.90
24408;DHT22;12542;50.924;4.516;2022-09-28T12:17:23;19.10;99.90
24408;DHT22;12542;50.924;4.516;2022-09-28T12:20:00;19.20;99.90
24408;DHT22;12542;50.924;4.516;2022-09-28T12:22:38;19.20;99.90
24408;DHT22;12542;50.924;4.516;2022-09-28T12:25:11;19.00;99.90
24408;DHT22;12542;50.924;4.516;2022-09-28T12:27:48;18.70;99.90
24408;DHT22;12542;50.924;4.516;2022-09-28T12:30:22;18.40;99.90
24408;DHT22;12542;50.924;4.516;2022-09-28T12:33:12;18.50;99.90
24408;DHT22;12542;50.924;4.516;2022-09-28T12:40:55;17.60;99.90
24408;DHT22;12542;50.924;4.516;2022-09-28T12:57:01;17.10;99.90
24408;DHT22;12542;50.924;4.516;2022-09-28T12:59:43;17.30;99.90
24408;DHT22;12542;50.924;4.516;2022-09-28T13:07:36;17.30;99.90
24408;DHT22;12542;50.924;4.516;2022-09-28T13:12:51;17.40;99.90
24408;DHT22;12542;50.924;4.516;2022-09-28T13:15:37;17.60;99.90
24408;DHT22;12542;50.924;4.516;2022-09-28T13:23:27;18.00;99.90
24408;DHT22;12542;50.924;4.516;2022-09-28T13:25:58;18.00;99.90
24408;DHT22;12542;50.924;4.516;2022-09-28T13:28:26;18.00;99.90
24408;DHT22;12542;50.924;4.516;2022-09-28T13:30:54;18.30;99.90
24408;DHT22;12542;50.924;4.516;2022-09-28T13:33:33;18.60;99.90
24408;DHT22;12542;50.924;4.516;2022-09-28T13:38:47;19.00;99.90
24408;DHT22;12542;50.924;4.516;2022-09-28T13:46:57;18.30;99.90
24408;DHT22;12542;50.924;4.516;2022-09-28T13:52:44;18.30;99.90
24408;DHT22;12542;50.924;4.516;2022-09-28T13:55:21;18.10;99.90
24408;DHT22;12542;50.924;4.516;2022-09-28T13:57:54;17.70;99.90
24408;DHT22;12542;50.924;4.516;2022-09-28T14:00:28;17.60;99.90
24408;DHT22;12542;50.924;4.516;2022-09-28T14:03:10;17.30;99.90
24408;DHT22;12542;50.924;4.516;2022-09-28T14:05:52;17.10;99.90
24408;DHT22;12542;50.924;4.516;2022-09-28T14:08:34;17.10;99.90
24408;DHT22;12542;50.924;4.516;2022-09-28T14:16:42;17.10;99.90
24408;DHT22;12542;50.924;4.516;2022-09-28T14:19:15;16.80;99.90
24408;DHT22;12542;50.924;4.516;2022-09-28T14:32:37;16.80;99.90
24408;DHT22;12542;50.924;4.516;2022-09-28T14:37:59;16.50;99.90
24408;DHT22;12542;50.924;4.516;2022-09-28T14:44:09;16.40;99.90
24408;DHT22;12542;50.924;4.516;2022-09-28T14:46:36;16.50;99.90
24408;DHT22;12542;50.924;4.516;2022-09-28T14:54:26;16.50;99.90
24408;DHT22;12542;50.924;4.516;2022-09-28T14:59:22;16.60;99.90
24408;DHT22;12542;50.924;4.516;2022-09-28T15:02:06;16.90;99.90
24408;DHT22;12542;50.924;4.516;2022-09-28T15:04:36;16.90;99.90
24408;DHT22;12542;50.924;4.516;2022-09-28T15:07:04;16.80;99.90
24408;DHT22;12542;50.924;4.516;2022-09-28T15:09:32;16.70;99.90
24408;DHT22;12542;50.924;4.516;2022-09-28T15:12:00;16.60;99.90
24408;DHT22;12542;50.924;4.516;2022-09-28T15:14:28;16.50;99.90
24408;DHT22;12542;50.924;4.516;2022-09-28T15:16:59;16.30;99.90
24408;DHT22;12542;50.924;4.516;2022-09-28T15:22:14;16.30;99.90
24408;DHT22;12542;50.924;4.516;2022-09-28T15:24:45;16.40;99.90
24408;DHT22;12542;50.924;4.516;2022-09-28T15:27:17;16.50;99.90
24408;DHT22;12542;50.924;4.516;2022-09-28T15:29:58;16.80;99.90
24408;DHT22;12542;50.924;4.516;2022-09-28T15:32:25;16.80;99.90
24408;DHT22;12542;50.924;4.516;2022-09-28T15:34:51;16.80;99.90
24408;DHT22;12542;50.924;4.516;2022-09-28T15:37:32;16.80;99.90
24408;DHT22;12542;50.924;4.516;2022-09-28T15:40:00;16.40;99.90
24408;DHT22;12542;50.924;4.516;2022-09-28T15:42:27;16.40;99.90
24408;DHT22;12542;50.924;4.516;2022-09-28T15:45:18;16.50;99.90
24408;DHT22;12542;50.924;4.516;2022-09-28T15:47:49;16.50;99.90
24408;DHT22;12542;50.924;4.516;2022-09-28T15:50:27;16.20;99.90
24408;DHT22;12542;50.924;4.516;2022-09-28T15:55:31;16.00;99.90
24408;DHT22;12542;50.924;4.516;2022-09-28T15:58:16;15.90;99.90
24408;DHT22;12542;50.924;4.516;2022-09-28T16:00:48;15.70;99.90
24408;DHT22;12542;50.924;4.516;2022-09-28T16:03:23;15.70;99.90
24408;DHT22;12542;50.924;4.516;2022-09-28T16:08:46;15.60;99.90
24408;DHT22;12542;50.924;4.516;2022-09-28T16:14:06;15.50;99.90
24408;DHT22;12542;50.924;4.516;2022-09-28T16:16:45;15.40;99.90
24408;DHT22;12542;50.924;4.516;2022-09-28T16:21:51;15.10;99.90
24408;DHT22;12542;50.924;4.516;2022-09-28T16:24:27;15.10;99.90
24408;DHT22;12542;50.924;4.516;2022-09-28T16:29:37;15.30;99.90
24408;DHT22;12542;50.924;4.516;2022-09-28T16:37:36;15.30;99.90
24408;DHT22;12542;50.924;4.516;2022-09-28T16:40:02;15.20;99.90
24408;DHT22;12542;50.924;4.516;2022-09-28T16:42:28;15.20;99.90
24408;DHT22;12542;50.924;4.516;2022-09-28T16:44:55;15.20;99.90
24408;DHT22;12542;50.924;4.516;2022-09-28T16:47:22;15.10;99.90
24408;DHT22;12542;50.924;4.516;2022-09-28T16:49:48;15.20;99.90
24408;DHT22;12542;50.924;4.516;2022-09-28T16:52:14;15.00;99.90
24408;DHT22;12542;50.924;4.516;2022-09-28T16:55:02;15.00;99.90
24408;DHT22;12542;50.924;4.516;2022-09-28T16:57:43;15.00;99.90
24408;DHT22;12542;50.924;4.516;2022-09-28T17:00:15;15.00;99.90
24408;DHT22;12542;50.924;4.516;2022-09-28T17:02:48;14.90;99.90
24408;DHT22;12542;50.924;4.516;2022-09-28T17:05:18;14.90;99.90
24408;DHT22;12542;50.924;4.516;2022-09-28T17:08:02;14.80;99.90
24408;DHT22;12542;50.924;4.516;2022-09-28T17:10:36;14.80;99.90
24408;DHT22;12542;50.924;4.516;2022-09-28T17:13:02;14.80;99.90
24408;DHT22;12542;50.924;4.516;2022-09-28T17:15:27;14.70;99.90
24408;DHT22;12542;50.924;4.516;2022-09-28T17:17:53;14.60;99.90
24408;DHT22;12542;50.924;4.516;2022-09-28T17:20:24;14.50;99.90
24408;DHT22;12542;50.924;4.516;2022-09-28T17:22:51;14.50;99.90
24408;DHT22;12542;50.924;4.516;2022-09-28T17:25:19;14.40;99.90
24408;DHT22;12542;50.924;4.516;2022-09-28T17:27:48;14.30;99.90
24408;DHT22;12542;50.924;4.516;2022-09-28T17:30:15;14.20;99.90
24408;DHT22;12542;50.924;4.516;2022-09-28T17:32:41;14.10;99.90
24408;DHT22;12542;50.924;4.516;2022-09-28T17:35:14;14.10;99.90
24408;DHT22;12542;50.924;4.516;2022-09-28T17:37:40;14.00;99.90
24408;DHT22;12542;50.924;4.516;2022-09-28T17:40:14;13.90;99.90
24408;DHT22;12542;50.924;4.516;2022-09-28T17:42:41;13.70;99.90
24408;DHT22;12542;50.924;4.516;2022-09-28T17:45:07;13.60;99.90
24408;DHT22;12542;50.924;4.516;2022-09-28T17:47:33;13.60;99.90
24408;DHT22;12542;50.924;4.516;2022-09-28T17:49:58;13.50;99.90
24408;DHT22;12542;50.924;4.516;2022-09-28T17:52:26;13.40;99.90
24408;DHT22;12542;50.924;4.516;2022-09-28T17:54:52;13.30;99.90
24408;DHT22;12542;50.924;4.516;2022-09-28T17:57:18;13.30;99.90
24408;DHT22;12542;50.924;4.516;2022-09-28T17:59:44;13.20;99.90
24408;DHT22;12542;50.924;4.516;2022-09-28T18:02:10;13.20;99.90
24408;DHT22;12542;50.924;4.516;2022-09-28T18:04:36;13.20;99.90
24408;DHT22;12542;50.924;4.516;2022-09-28T18:07:02;13.10;99.90
24408;DHT22;12542;50.924;4.516;2022-09-28T18:09:27;13.00;99.90
24408;DHT22;12542;50.924;4.516;2022-09-28T18:12:03;13.00;99.90
24408;DHT22;12542;50.924;4.516;2022-09-28T18:14:28;13.00;99.90
24408;DHT22;12542;50.924;4.516;2022-09-28T18:16:55;12.90;99.90
24408;DHT22;12542;50.924;4.516;2022-09-28T18:19:21;12.80;99.90
24408;DHT22;12542;50.924;4.516;2022-09-28T18:21:46;12.70;99.90
24408;DHT22;12542;50.924;4.516;2022-09-28T18:24:12;12.70;99.90
24408;DHT22;12542;50.924;4.516;2022-09-28T18:26:38;12.60;99.90
24408;DHT22;12542;50.924;4.516;2022-09-28T18:29:04;12.60;99.90
24408;DHT22;12542;50.924;4.516;2022-09-28T18:31:30;12.50;99.90
24408;DHT22;12542;50.924;4.516;2022-09-28T18:33:57;12.40;99.90
24408;DHT22;12542;50.924;4.516;2022-09-28T18:36:28;12.40;99.90
24408;DHT22;12542;50.924;4.516;2022-09-28T18:38:54;12.40;99.90
24408;DHT22;12542;50.924;4.516;2022-09-28T18:41:22;12.30;99.90
24408;DHT22;12542;50.924;4.516;2022-09-28T18:43:48;12.30;99.90
24408;DHT22;12542;50.924;4.516;2022-09-28T18:46:16;12.20;99.90
24408;DHT22;12542;50.924;4.516;2022-09-28T18:49:03;12.20;99.90
24408;DHT22;12542;50.924;4.516;2022-09-28T18:51:29;12.10;99.90
24408;DHT22;12542;50.924;4.516;2022-09-28T18:53:55;12.00;99.90
24408;DHT22;12542;50.924;4.516;2022-09-28T18:56:21;12.00;99.90
24408;DHT22;12542;50.924;4.516;2022-09-28T18:58:47;12.00;99.90